Detroit, Michigan
Traffic Map
Current Weather Conditions
Detroit, Michigan
Few Clouds
Few Clouds
45°
Feels Like: 40°
Wind Chill: 40° Ceiling: Unl
Heat Index: 45° Visibility: 15mi
Dew Point: 30° Wind: 8mph
Humidity: 57% Direction: 30° (NNE)
Pressure: 30.34in Gusts: 0mph
Raw Report DataCYQG 230400Z 03007KT 15SM FEW260 07/M01 A3034 RMK CI1 SLP277
Traffic Incident Summary
Active as of:
Severity:
Category:
InformationThere was an issue retrieving the traffic information for this location. Please try a different location or try again shortly.
Advertisements
Track Severe Weather on mobile